createdAt,value
2023-02-27T00:01:10.845Z,2.30
2023-02-27T00:03:44.565Z,2.30
2023-02-27T00:06:18.675Z,2.30
2023-02-27T00:08:52.507Z,2.34
2023-02-27T00:11:26.452Z,2.40
2023-02-27T00:14:00.452Z,2.40
2023-02-27T00:16:35.127Z,2.40
2023-02-27T00:19:08.791Z,2.34
2023-02-27T00:21:44.613Z,2.32
2023-02-27T00:24:18.730Z,2.30
2023-02-27T00:26:52.408Z,2.30
2023-02-27T00:29:26.517Z,2.34
2023-02-27T00:32:00.438Z,2.38
2023-02-27T00:34:34.455Z,2.36
2023-02-27T00:37:08.230Z,2.38
2023-02-27T00:39:41.918Z,2.32
2023-02-27T00:42:15.719Z,2.30
2023-02-27T00:44:49.511Z,2.30
2023-02-27T00:47:23.131Z,2.30
2023-02-27T00:49:56.683Z,2.32
2023-02-27T00:52:31.340Z,2.40
2023-02-27T00:55:06.164Z,2.40
2023-02-27T00:57:40.617Z,2.30
2023-02-27T01:00:17.894Z,2.30
2023-02-27T01:02:51.676Z,2.24
2023-02-27T01:05:25.376Z,2.20
2023-02-27T01:07:59.119Z,2.20
2023-02-27T01:10:32.792Z,2.30
2023-02-27T01:13:06.536Z,2.30
2023-02-27T01:15:40.654Z,2.30
2023-02-27T01:18:16.024Z,2.26
2023-02-27T01:20:52.628Z,2.20
2023-02-27T01:23:27.024Z,2.20
2023-02-27T01:26:00.844Z,2.20
2023-02-27T01:28:34.535Z,2.20
2023-02-27T01:31:09.779Z,2.20
2023-02-27T01:33:43.459Z,2.20
2023-02-27T01:36:17.379Z,2.20
2023-02-27T01:38:51.058Z,2.20
2023-02-27T01:41:25.360Z,2.20
2023-02-27T01:44:02.985Z,2.20
2023-02-27T01:46:38.664Z,2.10
2023-02-27T01:49:17.877Z,2.10
2023-02-27T01:51:56.082Z,2.20
2023-02-27T01:54:32.284Z,2.20
2023-02-27T01:57:07.357Z,2.20
2023-02-27T01:59:44.698Z,2.20
2023-02-27T02:02:26.651Z,2.10
2023-02-27T02:05:03.976Z,2.10
2023-02-27T02:07:41.055Z,2.10
2023-02-27T02:10:18.863Z,2.10
2023-02-27T02:12:53.187Z,2.10
2023-02-27T02:15:37.794Z,2.08
2023-02-27T02:18:25.841Z,2.00
2023-02-27T02:21:44.646Z,2.00
2023-02-27T02:25:13.948Z,1.98
2023-02-27T02:28:04.727Z,1.90
2023-02-27T02:31:39.793Z,1.90
2023-02-27T02:34:52.107Z,1.94
2023-02-27T02:38:00.912Z,2.00
2023-02-27T02:40:42.863Z,2.00
2023-02-27T02:43:27.321Z,2.00
2023-02-27T02:46:14.174Z,2.00
2023-02-27T02:49:00.785Z,2.00
2023-02-27T02:51:41.063Z,2.00
2023-02-27T02:54:25.831Z,2.00
2023-02-27T02:57:06.308Z,2.00
2023-02-27T02:59:48.869Z,2.00
2023-02-27T03:02:28.293Z,2.00
2023-02-27T03:05:09.994Z,2.00
2023-02-27T03:07:51.179Z,2.00
2023-02-27T03:10:31.563Z,2.00
2023-02-27T03:13:14.256Z,2.00
2023-02-27T03:15:57.859Z,1.94
2023-02-27T03:18:42.500Z,1.90
2023-02-27T03:21:22.756Z,1.90
2023-02-27T03:24:02.513Z,1.90
2023-02-27T03:26:42.512Z,1.90
2023-02-27T03:29:26.706Z,1.90
2023-02-27T03:32:09.735Z,1.90
2023-02-27T03:34:45.403Z,1.90
2023-02-27T03:37:37.520Z,1.90
2023-02-27T03:40:27.667Z,1.90
2023-02-27T03:43:16.194Z,1.92
2023-02-27T03:46:04.156Z,1.94
2023-02-27T03:48:38.701Z,1.96
2023-02-27T03:51:13.239Z,1.90
2023-02-27T03:53:56.243Z,1.90
2023-02-27T03:56:39.285Z,2.00
2023-02-27T03:59:13.668Z,2.00
2023-02-27T04:01:51.273Z,2.00
2023-02-27T04:04:27.611Z,1.94
2023-02-27T04:07:29.813Z,1.90
2023-02-27T04:10:45.267Z,1.90
2023-02-27T04:13:56.487Z,1.88
2023-02-27T04:17:01.919Z,1.90
2023-02-27T04:20:06.938Z,1.90
2023-02-27T04:22:47.942Z,1.90
2023-02-27T04:25:40.912Z,1.90
2023-02-27T04:28:29.241Z,1.90
2023-02-27T04:31:15.227Z,1.90
2023-02-27T04:33:55.853Z,1.90
2023-02-27T04:36:38.908Z,1.90
2023-02-27T04:39:22.531Z,1.90
2023-02-27T04:42:02.621Z,1.90
2023-02-27T04:44:40.254Z,1.90
2023-02-27T04:47:18.576Z,1.90
2023-02-27T04:50:00.678Z,1.90
2023-02-27T04:52:40.749Z,1.90
2023-02-27T04:55:20.931Z,1.88
2023-02-27T04:58:00.669Z,1.80
2023-02-27T05:00:36.639Z,1.80
2023-02-27T05:03:17.210Z,1.80
2023-02-27T05:05:53.465Z,1.80
2023-02-27T05:08:36.150Z,1.80
2023-02-27T05:11:20.610Z,1.80
2023-02-27T05:14:01.623Z,1.76
2023-02-27T05:16:42.583Z,1.80
2023-02-27T05:19:19.786Z,1.80
2023-02-27T05:22:04.906Z,1.80
2023-02-27T05:24:50.828Z,1.80
2023-02-27T05:27:35.851Z,1.80
2023-02-27T05:30:22.903Z,1.80
2023-02-27T05:33:03.141Z,1.80
2023-02-27T05:35:44.548Z,1.80
2023-02-27T05:38:25.899Z,1.80
2023-02-27T05:41:08.385Z,1.80
2023-02-27T05:43:48.875Z,1.84
2023-02-27T05:46:28.723Z,1.90
2023-02-27T05:49:08.907Z,1.90
2023-02-27T05:51:48.013Z,1.90
2023-02-27T05:54:33.076Z,1.90
2023-02-27T05:57:13.321Z,1.82
2023-02-27T05:59:56.055Z,1.80
2023-02-27T06:02:30.075Z,1.80
2023-02-27T06:05:04.034Z,1.80
2023-02-27T06:07:39.369Z,1.80
2023-02-27T06:10:20.104Z,1.80
2023-02-27T06:12:53.836Z,1.80
2023-02-27T06:15:27.919Z,1.80
2023-02-27T06:18:01.524Z,1.80
2023-02-27T06:20:36.051Z,1.80
2023-02-27T06:23:10.336Z,1.80
2023-02-27T06:25:44.358Z,1.80
2023-02-27T06:28:18.542Z,1.84
2023-02-27T06:30:57.326Z,1.90
2023-02-27T06:33:31.229Z,1.88
2023-02-27T06:36:05.090Z,1.90
2023-02-27T06:38:38.746Z,1.90
2023-02-27T06:41:12.883Z,1.90
2023-02-27T06:43:46.537Z,1.90
2023-02-27T06:46:20.284Z,1.90
2023-02-27T06:48:53.994Z,1.98
2023-02-27T06:51:27.801Z,2.00
2023-02-27T06:54:01.657Z,2.00
2023-02-27T06:56:35.482Z,2.00
2023-02-27T06:59:09.563Z,2.02
2023-02-27T07:01:43.230Z,2.10
2023-02-27T07:04:18.630Z,2.10
2023-02-27T07:07:36.017Z,2.10
2023-02-27T07:09:47.000Z,2.10
2023-02-27T07:12:20.709Z,2.10
2023-02-27T07:14:54.531Z,2.10
2023-02-27T07:17:28.342Z,2.10
2023-02-27T07:20:02.526Z,2.20
2023-02-27T07:22:36.411Z,2.24
2023-02-27T07:25:12.663Z,2.30
2023-02-27T07:27:48.283Z,2.30
2023-02-27T07:30:25.503Z,2.30
2023-02-27T07:32:59.665Z,2.30
2023-02-27T07:35:33.633Z,2.32
2023-02-27T07:38:07.771Z,2.40
2023-02-27T07:40:42.079Z,2.50
2023-02-27T07:43:15.891Z,2.60
2023-02-27T07:45:51.235Z,2.60
2023-02-27T07:48:26.803Z,2.60
2023-02-27T07:51:01.069Z,2.70
2023-02-27T07:53:34.953Z,2.70
2023-02-27T07:56:10.085Z,2.70
2023-02-27T07:58:44.466Z,2.70
2023-02-27T08:01:18.551Z,2.78
2023-02-27T08:03:52.444Z,2.80
2023-02-27T08:06:26.732Z,2.80
2023-02-27T08:09:01.445Z,2.90
2023-02-27T08:11:35.664Z,3.00
2023-02-27T08:14:09.554Z,3.10
2023-02-27T08:16:43.361Z,3.20
2023-02-27T08:19:18.841Z,3.20
2023-02-27T08:21:52.985Z,3.22
2023-02-27T08:24:27.431Z,3.30
2023-02-27T08:27:02.013Z,3.40
2023-02-27T08:29:36.066Z,3.40
2023-02-27T08:32:09.942Z,3.40
2023-02-27T08:34:46.491Z,3.46
2023-02-27T08:37:20.415Z,3.60
2023-02-27T08:39:54.092Z,3.80
2023-02-27T08:42:27.788Z,3.90
2023-02-27T08:45:01.517Z,3.90
2023-02-27T08:47:35.454Z,3.90
2023-02-27T08:50:12.856Z,4.00
2023-02-27T08:52:47.769Z,4.02
2023-02-27T08:55:21.966Z,4.20
2023-02-27T08:57:56.270Z,4.38
2023-02-27T09:00:31.089Z,4.50
2023-02-27T09:03:07.201Z,4.58
2023-02-27T09:05:42.103Z,4.70
2023-02-27T09:08:16.693Z,4.88
2023-02-27T09:10:51.001Z,4.96
2023-02-27T09:13:25.139Z,5.00
2023-02-27T09:15:59.467Z,5.00
2023-02-27T09:18:33.451Z,5.00
2023-02-27T09:21:08.294Z,4.90
2023-02-27T09:23:42.715Z,4.88
2023-02-27T09:26:17.664Z,4.90
2023-02-27T09:28:51.503Z,5.00
2023-02-27T09:31:26.637Z,5.12
2023-02-27T09:34:01.769Z,5.30
2023-02-27T09:36:36.269Z,5.50
2023-02-27T09:39:11.438Z,5.60
2023-02-27T09:42:00.347Z,5.70
2023-02-27T09:44:47.426Z,5.80
2023-02-27T09:47:30.244Z,6.00
2023-02-27T09:50:08.985Z,6.00
2023-02-27T09:52:45.526Z,6.00
2023-02-27T09:55:26.313Z,6.20
2023-02-27T09:58:09.004Z,6.30
2023-02-27T10:00:54.114Z,6.50
2023-02-27T10:03:57.393Z,6.60
2023-02-27T10:06:38.008Z,6.80
2023-02-27T10:09:27.517Z,6.84
2023-02-27T10:12:20.903Z,6.84
2023-02-27T10:14:59.964Z,6.80
2023-02-27T10:17:40.189Z,6.70
2023-02-27T10:20:25.383Z,6.80
2023-02-27T10:23:03.171Z,6.80
2023-02-27T10:25:46.411Z,6.80
2023-02-27T10:28:23.250Z,6.90
2023-02-27T10:31:02.343Z,6.90
2023-02-27T10:33:41.463Z,7.12
2023-02-27T10:36:32.182Z,7.40
2023-02-27T10:39:15.590Z,7.60
2023-02-27T10:41:51.315Z,7.68
2023-02-27T10:44:26.606Z,7.50
2023-02-27T10:47:00.676Z,7.50
2023-02-27T10:49:37.204Z,7.50
2023-02-27T10:52:14.993Z,7.60
2023-02-27T10:54:50.197Z,7.60
2023-02-27T10:57:41.926Z,7.60
2023-02-27T11:00:35.775Z,7.74
2023-02-27T11:03:18.627Z,7.70
2023-02-27T11:06:05.212Z,7.60
2023-02-27T11:08:40.761Z,7.54
2023-02-27T11:11:16.262Z,7.40
2023-02-27T11:13:54.696Z,7.22
2023-02-27T11:16:28.780Z,7.20
2023-02-27T11:19:15.682Z,7.42
2023-02-27T11:22:06.987Z,7.80
2023-02-27T11:24:41.506Z,7.80
2023-02-27T11:27:28.951Z,7.70
2023-02-27T11:30:06.159Z,7.46
2023-02-27T11:32:49.630Z,7.20
2023-02-27T11:35:31.408Z,6.90
2023-02-27T11:38:09.003Z,6.70
2023-02-27T11:40:53.691Z,6.60
2023-02-27T11:43:31.946Z,6.40
2023-02-27T11:46:23.287Z,6.20
2023-02-27T11:49:21.354Z,6.04
2023-02-27T11:52:09.859Z,6.00
2023-02-27T11:54:47.006Z,6.00
2023-02-27T11:57:31.703Z,6.00
2023-02-27T12:00:22.447Z,6.00
2023-02-27T12:03:05.128Z,5.96
2023-02-27T12:05:45.104Z,6.00
2023-02-27T12:08:31.704Z,6.02
2023-02-27T12:11:14.946Z,6.10
2023-02-27T12:13:56.140Z,6.10
2023-02-27T12:16:39.048Z,6.10
2023-02-27T12:19:23.203Z,6.20
2023-02-27T12:22:04.904Z,6.26
2023-02-27T12:24:47.534Z,6.10
2023-02-27T12:27:30.754Z,6.00
2023-02-27T12:30:54.464Z,5.90
2023-02-27T12:33:46.462Z,5.80
2023-02-27T12:36:21.232Z,5.80
2023-02-27T12:39:04.034Z,5.80
2023-02-27T12:41:53.570Z,5.80
2023-02-27T12:44:56.836Z,5.90
2023-02-27T12:47:42.883Z,6.00
2023-02-27T12:50:20.103Z,6.20
2023-02-27T12:53:19.217Z,6.20
2023-02-27T12:56:00.207Z,6.24
2023-02-27T12:58:48.692Z,6.30
2023-02-27T13:01:40.743Z,6.40
2023-02-27T13:04:28.927Z,6.40
2023-02-27T13:07:10.599Z,6.40
2023-02-27T13:09:49.769Z,6.40
2023-02-27T13:12:35.850Z,6.30
2023-02-27T13:15:21.040Z,6.20
2023-02-27T13:18:02.823Z,6.10
2023-02-27T13:20:45.805Z,6.04
2023-02-27T13:23:30.276Z,6.00
2023-02-27T13:26:14.597Z,6.00
2023-02-27T13:28:49.111Z,6.00
2023-02-27T13:31:35.705Z,6.00
2023-02-27T13:34:29.993Z,6.00
2023-02-27T13:37:09.196Z,6.00
2023-02-27T13:39:56.210Z,5.90
2023-02-27T13:43:00.452Z,5.90
2023-02-27T13:46:00.341Z,5.80
2023-02-27T13:48:55.030Z,5.78
2023-02-27T13:52:02.076Z,5.68
2023-02-27T13:54:42.846Z,5.50
2023-02-27T13:57:34.586Z,5.40
2023-02-27T14:00:24.539Z,5.20
2023-02-27T14:03:04.152Z,5.00
2023-02-27T14:05:43.549Z,4.90
2023-02-27T14:08:24.462Z,4.88
2023-02-27T14:11:17.626Z,4.80
2023-02-27T14:14:44.480Z,4.70
2023-02-27T14:17:46.089Z,4.66
2023-02-27T14:20:54.008Z,4.60
2023-02-27T14:23:30.104Z,4.60
2023-02-27T14:26:15.613Z,4.60
2023-02-27T14:28:55.951Z,4.60
2023-02-27T14:31:33.620Z,4.50
2023-02-27T14:34:13.561Z,4.50
2023-02-27T14:36:52.592Z,4.60
2023-02-27T14:39:34.583Z,4.62
2023-02-27T14:42:32.032Z,4.70
2023-02-27T14:45:14.065Z,4.70
2023-02-27T14:47:48.118Z,4.70
2023-02-27T14:50:34.240Z,4.70
2023-02-27T14:53:22.697Z,4.76
2023-02-27T14:56:01.177Z,4.76
2023-02-27T14:58:35.341Z,4.70
2023-02-27T15:01:12.593Z,4.70
2023-02-27T15:03:53.065Z,4.70
2023-02-27T15:06:39.100Z,4.70
2023-02-27T15:09:22.994Z,4.68
2023-02-27T15:12:03.897Z,4.60
2023-02-27T15:14:41.246Z,4.60
2023-02-27T15:17:23.462Z,4.52
2023-02-27T15:19:59.792Z,4.50
2023-02-27T15:22:40.512Z,4.40
2023-02-27T15:25:33.453Z,4.40
2023-02-27T15:28:27.754Z,4.30
2023-02-27T15:31:02.769Z,4.26
2023-02-27T15:33:38.025Z,4.20
2023-02-27T15:36:22.660Z,4.20
2023-02-27T15:39:17.303Z,4.18
2023-02-27T15:41:54.510Z,4.10
2023-02-27T15:44:35.032Z,4.10
2023-02-27T15:47:12.068Z,4.10
2023-02-27T15:49:47.033Z,4.04
2023-02-27T15:52:24.702Z,4.06
2023-02-27T15:55:06.094Z,4.00
2023-02-27T15:57:40.915Z,4.00
2023-02-27T16:00:23.842Z,3.90
2023-02-27T16:03:00.785Z,3.90
2023-02-27T16:05:40.328Z,3.88
2023-02-27T16:08:22.785Z,3.80
2023-02-27T16:10:58.250Z,3.80
2023-02-27T16:13:43.736Z,3.70
2023-02-27T16:16:36.168Z,3.70
2023-02-27T16:19:29.438Z,3.70
2023-02-27T16:22:17.105Z,3.70
2023-02-27T16:24:52.245Z,3.70
2023-02-27T16:27:29.747Z,3.70
2023-02-27T16:30:10.725Z,3.70
2023-02-27T16:32:46.905Z,3.70
2023-02-27T16:35:24.551Z,3.60
2023-02-27T16:38:04.734Z,3.60
2023-02-27T16:40:39.135Z,3.60
2023-02-27T16:43:13.215Z,3.60
2023-02-27T16:45:56.572Z,3.60
2023-02-27T16:48:30.624Z,3.50
2023-02-27T16:51:07.815Z,3.50
2023-02-27T16:53:41.935Z,3.50
2023-02-27T16:56:18.139Z,3.50
2023-02-27T16:58:54.792Z,3.40
2023-02-27T17:01:28.546Z,3.40
2023-02-27T17:04:03.953Z,3.40
2023-02-27T17:06:40.738Z,3.50
2023-02-27T17:09:15.628Z,3.50
2023-02-27T17:11:49.657Z,3.50
2023-02-27T17:14:23.583Z,3.50
2023-02-27T17:16:59.650Z,3.44
2023-02-27T17:19:34.458Z,3.40
2023-02-27T17:22:08.815Z,3.40
2023-02-27T17:24:43.326Z,3.40
2023-02-27T17:27:17.430Z,3.30
2023-02-27T17:29:52.776Z,3.30
2023-02-27T17:32:26.860Z,3.20
2023-02-27T17:35:01.820Z,3.16
2023-02-27T17:37:36.788Z,3.10
2023-02-27T17:40:14.508Z,3.00
2023-02-27T17:42:48.436Z,3.00
2023-02-27T17:45:24.709Z,2.90
2023-02-27T17:47:59.000Z,2.80
2023-02-27T17:50:34.655Z,2.80
2023-02-27T17:53:09.795Z,2.70
2023-02-27T17:55:44.945Z,2.70
2023-02-27T17:58:18.930Z,2.60
2023-02-27T18:00:53.042Z,2.50
2023-02-27T18:03:27.022Z,2.40
2023-02-27T18:06:01.573Z,2.30
2023-02-27T18:08:35.681Z,2.20
2023-02-27T18:11:15.966Z,2.16
2023-02-27T18:13:51.920Z,2.02
2023-02-27T18:16:27.118Z,1.92
2023-02-27T18:19:05.464Z,1.90
2023-02-27T18:21:40.011Z,1.72
2023-02-27T18:24:14.807Z,1.60
2023-02-27T18:26:49.413Z,1.50
2023-02-27T18:29:23.778Z,1.40
2023-02-27T18:31:57.998Z,1.30
2023-02-27T18:34:32.750Z,1.30
2023-02-27T18:37:07.108Z,1.20
2023-02-27T18:39:42.351Z,1.10
2023-02-27T18:42:16.563Z,1.00
2023-02-27T18:44:51.340Z,0.90
2023-02-27T18:47:25.715Z,0.82
2023-02-27T18:49:59.919Z,0.70
2023-02-27T18:52:37.118Z,0.70
2023-02-27T18:55:13.150Z,0.60
2023-02-27T18:57:47.916Z,0.50
2023-02-27T19:00:24.385Z,0.50
2023-02-27T19:02:58.375Z,0.42
2023-02-27T19:05:33.785Z,0.40
2023-02-27T19:08:08.359Z,0.36
2023-02-27T19:10:44.031Z,0.30
2023-02-27T19:13:18.542Z,0.26
2023-02-27T19:15:52.834Z,0.20
2023-02-27T19:18:27.034Z,0.16
2023-02-27T19:21:06.615Z,0.10
2023-02-27T19:23:41.075Z,0.10
2023-02-27T19:26:15.549Z,0.02
2023-02-27T19:28:53.943Z,0.00
2023-02-27T19:31:31.002Z,0.00
2023-02-27T19:34:05.877Z,0.00
2023-02-27T19:36:40.320Z,0.00
2023-02-27T19:39:15.955Z,0.00
2023-02-27T19:41:50.568Z,0.00
2023-02-27T19:44:26.667Z,-0.08
2023-02-27T19:47:02.228Z,-0.10
2023-02-27T19:49:36.448Z,-0.18
2023-02-27T19:52:11.095Z,-0.20
2023-02-27T19:54:45.314Z,-0.20
2023-02-27T19:57:20.503Z,-0.20
2023-02-27T19:59:55.082Z,-0.20
2023-02-27T20:02:29.419Z,-0.20
2023-02-27T20:05:06.354Z,-0.20
2023-02-27T20:07:42.530Z,-0.20
2023-02-27T20:10:17.732Z,-0.28
2023-02-27T20:12:51.592Z,-0.30
2023-02-27T20:15:27.023Z,-0.30
2023-02-27T20:18:00.963Z,-0.30
2023-02-27T20:20:34.873Z,-0.30
2023-02-27T20:23:08.995Z,-0.30
2023-02-27T20:25:43.411Z,-0.30
2023-02-27T20:28:17.725Z,-0.30
2023-02-27T20:30:51.815Z,-0.30
2023-02-27T20:33:25.818Z,-0.30
2023-02-27T20:36:03.424Z,-0.30
2023-02-27T20:38:39.399Z,-0.40
2023-02-27T20:41:15.934Z,-0.40
2023-02-27T20:43:51.259Z,-0.36
2023-02-27T20:46:31.614Z,-0.30
2023-02-27T20:49:08.260Z,-0.30
2023-02-27T20:51:44.099Z,-0.30
2023-02-27T20:54:20.818Z,-0.30
2023-02-27T20:56:55.542Z,-0.30
2023-02-27T20:59:29.673Z,-0.30
2023-02-27T21:02:06.775Z,-0.30
2023-02-27T21:04:47.467Z,-0.20
2023-02-27T21:07:23.664Z,-0.10
2023-02-27T21:09:57.861Z,-0.08
2023-02-27T21:12:31.870Z,0.00
2023-02-27T21:15:07.120Z,0.08
2023-02-27T21:17:41.269Z,0.10
2023-02-27T21:20:17.469Z,0.20
2023-02-27T21:22:51.771Z,0.20
2023-02-27T21:25:27.284Z,0.30
2023-02-27T21:28:03.229Z,0.40
2023-02-27T21:30:37.757Z,0.50
2023-02-27T21:33:11.847Z,0.60
2023-02-27T21:35:51.055Z,0.70
2023-02-27T21:38:25.175Z,0.70
2023-02-27T21:40:59.483Z,0.70
2023-02-27T21:43:33.592Z,0.80
2023-02-27T21:46:13.192Z,0.80
2023-02-27T21:48:47.564Z,0.90
2023-02-27T21:51:38.295Z,0.94
2023-02-27T21:54:16.783Z,1.00
2023-02-27T21:56:51.619Z,1.10
2023-02-27T21:59:28.315Z,1.10
2023-02-27T22:02:02.616Z,1.16
2023-02-27T22:04:36.817Z,1.18
2023-02-27T22:07:11.557Z,1.20
2023-02-27T22:09:45.574Z,1.20
2023-02-27T22:12:19.598Z,1.20
2023-02-27T22:14:53.690Z,1.24
2023-02-27T22:17:28.038Z,1.30
2023-02-27T22:20:02.027Z,1.30
2023-02-27T22:22:36.047Z,1.38
2023-02-27T22:25:11.235Z,1.30
2023-02-27T22:27:45.760Z,1.30
2023-02-27T22:30:20.591Z,1.32
2023-02-27T22:32:54.872Z,1.40
2023-02-27T22:35:29.388Z,1.42
2023-02-27T22:38:03.452Z,1.50
2023-02-27T22:40:37.518Z,1.50
2023-02-27T22:43:11.976Z,1.50
2023-02-27T22:45:51.140Z,1.50
2023-02-27T22:48:24.914Z,1.50
2023-02-27T22:51:06.045Z,1.50
2023-02-27T22:53:40.645Z,1.50
2023-02-27T22:56:17.858Z,1.52
2023-02-27T22:58:52.359Z,1.58
2023-02-27T23:01:29.825Z,1.60
2023-02-27T23:04:06.102Z,1.58
2023-02-27T23:06:43.125Z,1.50
2023-02-27T23:09:20.280Z,1.50
2023-02-27T23:11:54.393Z,1.50
2023-02-27T23:14:29.727Z,1.52
2023-02-27T23:17:03.417Z,1.60
2023-02-27T23:19:37.182Z,1.60
2023-02-27T23:22:10.837Z,1.66
2023-02-27T23:24:44.949Z,1.70
2023-02-27T23:27:25.772Z,1.64
2023-02-27T23:30:01.513Z,1.70
2023-02-27T23:32:43.249Z,1.70
2023-02-27T23:35:22.429Z,1.70
2023-02-27T23:37:59.123Z,1.70
2023-02-27T23:40:32.900Z,1.70
2023-02-27T23:43:06.754Z,1.70
2023-02-27T23:45:40.670Z,1.70
2023-02-27T23:48:14.427Z,1.70
2023-02-27T23:50:48.835Z,1.80
2023-02-27T23:53:22.433Z,1.80
2023-02-27T23:55:56.116Z,1.80
2023-02-27T23:58:29.858Z,1.80
